createdAt,value
2023-09-01T00:01:01.242Z,71.55
2023-09-01T00:03:27.929Z,71.77
2023-09-01T00:05:54.647Z,71.94
2023-09-01T00:08:21.201Z,72.21
2023-09-01T00:10:47.729Z,72.80
2023-09-01T00:13:14.461Z,72.08
2023-09-01T00:15:40.970Z,72.18
2023-09-01T00:18:07.536Z,72.42
2023-09-01T00:20:36.889Z,71.98
2023-09-01T00:23:04.954Z,71.64
2023-09-01T00:25:32.016Z,72.29
2023-09-01T00:27:58.458Z,72.55
2023-09-01T00:30:24.932Z,72.39
2023-09-01T00:32:51.411Z,72.65
2023-09-01T00:35:18.047Z,72.86
2023-09-01T00:37:46.492Z,73.14
2023-09-01T00:40:13.000Z,73.18
2023-09-01T00:42:39.473Z,73.21
2023-09-01T00:45:06.680Z,73.05
2023-09-01T00:47:33.173Z,73.09
2023-09-01T00:50:08.726Z,73.63
2023-09-01T00:52:36.612Z,73.96
2023-09-01T00:55:04.175Z,74.02
2023-09-01T00:57:30.959Z,74.06
2023-09-01T00:59:58.143Z,74.36
2023-09-01T01:02:26.419Z,74.26
2023-09-01T01:04:54.887Z,74.56
2023-09-01T01:07:34.998Z,74.77
2023-09-01T01:10:11.534Z,74.84
2023-09-01T01:12:47.233Z,74.78
2023-09-01T01:15:15.597Z,74.82
2023-09-01T01:17:44.987Z,74.98
2023-09-01T01:20:17.477Z,75.42
2023-09-01T01:23:11.359Z,75.32
2023-09-01T01:25:45.361Z,74.93
2023-09-01T01:28:12.129Z,74.69
2023-09-01T01:30:39.377Z,74.82
2023-09-01T01:33:15.673Z,75.28
2023-09-01T01:35:54.384Z,75.30
2023-09-01T01:38:29.241Z,75.61
2023-09-01T01:41:20.682Z,75.09
2023-09-01T01:43:50.812Z,75.15
2023-09-01T01:46:18.195Z,75.40
2023-09-01T01:48:44.725Z,76.07
2023-09-01T01:51:11.280Z,76.53
2023-09-01T01:53:38.987Z,76.19
2023-09-01T01:56:07.192Z,76.54
2023-09-01T01:58:33.814Z,76.45
2023-09-01T02:01:07.102Z,77.04
2023-09-01T02:03:34.074Z,77.06
2023-09-01T02:06:00.568Z,77.15
2023-09-01T02:08:27.120Z,77.20
2023-09-01T02:10:53.577Z,77.49
2023-09-01T02:13:20.192Z,77.82
2023-09-01T02:15:56.207Z,77.81
2023-09-01T02:18:23.023Z,77.71
2023-09-01T02:20:49.502Z,78.60
2023-09-01T02:23:17.904Z,79.22
2023-09-01T02:25:45.211Z,79.87
2023-09-01T02:28:12.292Z,80.24
2023-09-01T02:30:40.056Z,80.58
2023-09-01T02:33:07.361Z,80.66
2023-09-01T02:35:34.907Z,80.74
2023-09-01T02:38:01.524Z,81.07
2023-09-01T02:40:28.118Z,81.35
2023-09-01T02:42:54.762Z,81.57
2023-09-01T02:45:21.344Z,81.46
2023-09-01T02:47:50.640Z,81.67
2023-09-01T02:50:17.085Z,82.06
2023-09-01T02:52:43.702Z,82.79
2023-09-01T02:55:10.604Z,83.05
2023-09-01T02:57:37.302Z,83.38
2023-09-01T03:00:15.536Z,83.08
2023-09-01T03:02:44.017Z,83.41
2023-09-01T03:05:11.375Z,84.04
2023-09-01T03:07:42.142Z,84.42
2023-09-01T03:10:09.482Z,84.18
2023-09-01T03:12:39.987Z,84.23
2023-09-01T03:15:12.842Z,84.53
2023-09-01T03:17:39.448Z,84.46
2023-09-01T03:20:06.721Z,85.02
2023-09-01T03:22:33.486Z,85.27
2023-09-01T03:25:01.170Z,85.55
2023-09-01T03:27:27.825Z,85.11
2023-09-01T03:29:55.657Z,85.28
2023-09-01T03:32:22.220Z,85.11
2023-09-01T03:34:49.338Z,85.38
2023-09-01T03:37:15.966Z,85.37
2023-09-01T03:39:42.445Z,85.23
2023-09-01T03:42:08.946Z,85.23
2023-09-01T03:44:35.520Z,85.44
2023-09-01T03:47:02.107Z,85.50
2023-09-01T03:49:28.981Z,85.25
2023-09-01T03:51:55.408Z,85.45
2023-09-01T03:54:21.910Z,85.38
2023-09-01T03:56:48.472Z,84.94
2023-09-01T03:59:14.943Z,85.14
2023-09-01T04:01:44.375Z,85.61
2023-09-01T04:04:11.597Z,85.45
2023-09-01T04:06:39.047Z,85.64
2023-09-01T04:09:06.359Z,85.78
2023-09-01T04:11:33.472Z,85.70
2023-09-01T04:14:00.242Z,85.65
2023-09-01T04:16:26.886Z,85.49
2023-09-01T04:18:53.677Z,85.91
2023-09-01T04:21:20.596Z,85.95
2023-09-01T04:23:47.367Z,85.89
2023-09-01T04:26:14.183Z,85.89
2023-09-01T04:28:40.630Z,85.91
2023-09-01T04:31:29.210Z,85.96
2023-09-01T04:33:58.652Z,86.04
2023-09-01T04:36:33.703Z,86.21
2023-09-01T04:39:05.828Z,86.20
2023-09-01T04:41:35.599Z,85.82
2023-09-01T04:44:02.104Z,85.94
2023-09-01T04:46:28.792Z,86.17
2023-09-01T04:48:56.066Z,85.92
2023-09-01T04:51:23.038Z,86.22
2023-09-01T04:53:52.402Z,85.98
2023-09-01T04:56:18.844Z,86.39
2023-09-01T04:58:45.304Z,86.51
2023-09-01T05:01:11.882Z,86.68
2023-09-01T05:03:38.641Z,87.01
2023-09-01T05:06:06.444Z,87.56
2023-09-01T05:08:33.426Z,87.64
2023-09-01T05:10:59.935Z,87.47
2023-09-01T05:13:27.886Z,87.60
2023-09-01T05:15:54.431Z,87.68
2023-09-01T05:18:20.894Z,87.81
2023-09-01T05:20:49.206Z,88.03
2023-09-01T05:23:16.038Z,87.87
2023-09-01T05:25:42.661Z,88.02
2023-09-01T05:28:09.214Z,87.65
2023-09-01T05:30:38.274Z,87.43
2023-09-01T05:33:05.141Z,87.52
2023-09-01T05:35:31.810Z,88.12
2023-09-01T05:37:58.417Z,88.74
2023-09-01T05:40:25.029Z,88.71
2023-09-01T05:42:51.473Z,88.80
2023-09-01T05:45:18.508Z,88.91
2023-09-01T05:47:45.728Z,89.08
2023-09-01T05:50:12.340Z,89.38
2023-09-01T05:52:38.788Z,89.45
2023-09-01T05:55:05.540Z,89.90
2023-09-01T05:57:32.041Z,89.72
2023-09-01T05:59:59.568Z,89.59
2023-09-01T06:02:26.245Z,89.76
2023-09-01T06:04:52.821Z,90.27
2023-09-01T06:07:22.275Z,90.33
2023-09-01T06:09:51.125Z,90.26
2023-09-01T06:12:17.652Z,90.10
2023-09-01T06:14:45.438Z,90.54
2023-09-01T06:17:12.169Z,90.67
2023-09-01T06:19:38.668Z,90.59
2023-09-01T06:22:05.161Z,90.31
2023-09-01T06:24:31.865Z,90.13
2023-09-01T06:26:58.362Z,90.08
2023-09-01T06:29:24.823Z,89.71
2023-09-01T06:31:51.461Z,90.00
2023-09-01T06:34:17.941Z,90.09
2023-09-01T06:36:44.587Z,90.31
2023-09-01T06:39:14.908Z,90.44
2023-09-01T06:41:41.482Z,90.55
2023-09-01T06:44:07.956Z,90.44
2023-09-01T06:46:34.542Z,90.67
2023-09-01T06:49:01.009Z,90.00
2023-09-01T06:51:27.530Z,90.27
2023-09-01T06:53:54.005Z,90.58
2023-09-01T06:56:20.480Z,90.30
2023-09-01T06:58:47.189Z,90.09
2023-09-01T07:01:16.494Z,89.90
2023-09-01T07:03:43.920Z,90.05
2023-09-01T07:06:10.425Z,89.77
2023-09-01T07:08:36.973Z,89.61
2023-09-01T07:11:05.203Z,89.58
2023-09-01T07:13:32.526Z,89.76
2023-09-01T07:15:59.710Z,89.64
2023-09-01T07:18:27.046Z,89.46
2023-09-01T07:20:59.612Z,89.43
2023-09-01T07:23:26.515Z,89.02
2023-09-01T07:25:56.775Z,88.78
2023-09-01T07:28:23.440Z,88.63
2023-09-01T07:30:50.116Z,88.69
2023-09-01T07:33:19.438Z,88.67
2023-09-01T07:35:47.644Z,88.72
2023-09-01T07:38:14.599Z,88.63
2023-09-01T07:40:41.973Z,88.37
2023-09-01T07:43:08.508Z,88.19
2023-09-01T07:45:37.762Z,88.34
2023-09-01T07:48:20.426Z,87.97
2023-09-01T07:50:49.481Z,88.10
2023-09-01T07:53:16.136Z,88.07
2023-09-01T07:55:42.683Z,88.09
2023-09-01T07:58:12.179Z,88.18
2023-09-01T08:00:41.092Z,87.67
2023-09-01T08:03:11.941Z,87.35
2023-09-01T08:05:39.223Z,87.11
2023-09-01T08:08:06.573Z,87.04
2023-09-01T08:10:33.143Z,87.03
2023-09-01T08:12:59.748Z,87.15
2023-09-01T08:15:26.429Z,87.29
2023-09-01T08:17:54.461Z,87.14
2023-09-01T08:20:21.019Z,87.02
2023-09-01T08:22:47.586Z,87.05
2023-09-01T08:25:14.693Z,86.88
2023-09-01T08:27:41.197Z,86.82
2023-09-01T08:30:08.368Z,87.10
2023-09-01T08:32:35.118Z,87.02
2023-09-01T08:35:04.377Z,87.01
2023-09-01T08:37:31.094Z,87.32
2023-09-01T08:39:57.620Z,87.14
2023-09-01T08:42:26.888Z,87.17
2023-09-01T08:44:54.144Z,86.54
2023-09-01T08:47:24.442Z,86.85
2023-09-01T08:49:51.633Z,86.83
2023-09-01T08:52:19.878Z,86.77
2023-09-01T08:54:47.639Z,87.08
2023-09-01T08:57:14.277Z,86.77
2023-09-01T08:59:43.252Z,86.59
2023-09-01T09:02:09.865Z,86.93
2023-09-01T09:04:36.541Z,86.30
2023-09-01T09:07:19.960Z,86.65
2023-09-01T09:09:55.780Z,86.19
2023-09-01T09:12:42.425Z,85.95
2023-09-01T09:15:10.452Z,86.08
2023-09-01T09:17:45.898Z,86.18
2023-09-01T09:20:15.233Z,85.96
2023-09-01T09:23:11.842Z,86.26
2023-09-01T09:25:38.336Z,85.97
2023-09-01T09:28:15.191Z,86.22
2023-09-01T09:30:52.413Z,86.44
2023-09-01T09:33:30.075Z,86.43
2023-09-01T09:35:57.025Z,86.16
2023-09-01T09:38:24.869Z,85.97
2023-09-01T09:40:58.294Z,86.10
2023-09-01T09:43:24.917Z,85.92
2023-09-01T09:45:55.846Z,85.78
2023-09-01T09:48:22.907Z,85.80
2023-09-01T09:50:55.521Z,85.94
2023-09-01T09:53:24.896Z,85.81
2023-09-01T09:55:55.001Z,86.11
2023-09-01T09:58:36.178Z,86.30
2023-09-01T10:01:08.468Z,86.31
2023-09-01T10:03:35.926Z,86.12
2023-09-01T10:06:05.534Z,86.26
2023-09-01T10:08:37.660Z,86.00
2023-09-01T10:11:06.732Z,85.85
2023-09-01T10:13:33.399Z,85.57
2023-09-01T10:16:01.039Z,85.22
2023-09-01T10:18:27.802Z,85.47
2023-09-01T10:20:54.509Z,85.46
2023-09-01T10:23:21.357Z,85.40
2023-09-01T10:26:33.311Z,85.63
2023-09-01T10:29:01.542Z,85.10
2023-09-01T10:31:32.780Z,84.65
2023-09-01T10:34:09.745Z,84.60
2023-09-01T10:36:37.688Z,84.26
2023-09-01T10:39:22.351Z,84.09
2023-09-01T10:42:04.144Z,83.48
2023-09-01T10:44:45.724Z,82.99
2023-09-01T10:47:32.678Z,81.78
2023-09-01T10:50:01.573Z,82.27
2023-09-01T10:52:29.568Z,82.07
2023-09-01T10:55:03.664Z,81.46
2023-09-01T10:57:52.744Z,80.71
2023-09-01T11:00:33.156Z,81.00
2023-09-01T11:03:31.355Z,80.47
2023-09-01T11:05:59.508Z,80.52
2023-09-01T11:08:26.678Z,80.57
2023-09-01T11:11:01.468Z,80.35
2023-09-01T11:13:28.775Z,79.84
2023-09-01T11:15:55.410Z,79.54
2023-09-01T11:18:22.790Z,79.39
2023-09-01T11:20:54.144Z,79.02
2023-09-01T11:23:22.078Z,79.21
2023-09-01T11:25:49.572Z,79.24
2023-09-01T11:28:16.366Z,79.62
2023-09-01T11:30:57.088Z,79.76
2023-09-01T11:33:26.367Z,79.60
2023-09-01T11:36:07.178Z,79.90
2023-09-01T11:38:35.487Z,80.26
2023-09-01T11:41:04.346Z,80.24
2023-09-01T11:43:32.593Z,79.90
2023-09-01T11:45:59.851Z,80.04
2023-09-01T11:48:29.450Z,80.08
2023-09-01T11:51:01.194Z,79.99
2023-09-01T11:53:30.571Z,79.93
2023-09-01T11:56:02.406Z,79.17
2023-09-01T11:58:34.715Z,78.42
2023-09-01T12:01:15.349Z,78.31
2023-09-01T12:03:51.794Z,78.35
2023-09-01T12:06:22.161Z,78.42
2023-09-01T12:08:49.785Z,78.17
2023-09-01T12:11:18.006Z,78.13
2023-09-01T12:13:45.776Z,77.95
2023-09-01T12:16:23.513Z,78.96
2023-09-01T12:18:50.763Z,79.09
2023-09-01T12:21:18.730Z,79.10
2023-09-01T12:23:47.241Z,79.22
2023-09-01T12:26:16.739Z,79.41
2023-09-01T12:28:44.416Z,79.62
2023-09-01T12:31:12.261Z,80.05
2023-09-01T12:33:39.103Z,80.31
2023-09-01T12:36:07.626Z,80.52
2023-09-01T12:38:34.225Z,80.62
2023-09-01T12:41:00.775Z,80.47
2023-09-01T12:43:27.242Z,80.00
2023-09-01T12:45:53.849Z,79.30
2023-09-01T12:48:20.422Z,78.67
2023-09-01T12:50:50.075Z,78.72
2023-09-01T12:53:17.410Z,78.65
2023-09-01T12:55:46.401Z,78.64
2023-09-01T12:58:13.169Z,78.30
2023-09-01T13:00:39.644Z,78.08
2023-09-01T13:03:06.353Z,77.76
2023-09-01T13:05:33.114Z,77.75
2023-09-01T13:08:00.852Z,77.82
2023-09-01T13:10:28.383Z,77.67
2023-09-01T13:12:55.220Z,77.82
2023-09-01T13:15:21.866Z,77.64
2023-09-01T13:17:48.722Z,77.56
2023-09-01T13:20:15.813Z,77.44
2023-09-01T13:22:43.049Z,77.75
2023-09-01T13:25:10.424Z,77.79
2023-09-01T13:27:37.170Z,77.48
2023-09-01T13:30:04.215Z,77.76
2023-09-01T13:32:30.826Z,78.04
2023-09-01T13:34:57.345Z,78.19
2023-09-01T13:37:26.004Z,78.46
2023-09-01T13:39:58.884Z,78.36
2023-09-01T13:42:26.176Z,78.19
2023-09-01T13:44:55.364Z,78.16
2023-09-01T13:47:22.444Z,78.04
2023-09-01T13:49:52.970Z,77.66
2023-09-01T13:52:20.343Z,77.62
2023-09-01T13:54:49.675Z,78.37
2023-09-01T13:57:16.202Z,78.64
2023-09-01T13:59:42.689Z,78.57
2023-09-01T14:02:09.300Z,78.46
2023-09-01T14:04:35.783Z,78.10
2023-09-01T14:07:03.828Z,78.10
2023-09-01T14:09:30.728Z,78.38
2023-09-01T14:11:57.224Z,78.53
2023-09-01T14:14:23.827Z,78.40
2023-09-01T14:16:50.516Z,78.89
2023-09-01T14:19:17.171Z,78.86
2023-09-01T14:21:43.802Z,78.84
2023-09-01T14:24:13.215Z,78.71
2023-09-01T14:26:42.072Z,78.21
2023-09-01T14:29:09.182Z,78.14
2023-09-01T14:31:35.801Z,78.08
2023-09-01T14:34:03.037Z,77.92
2023-09-01T14:36:29.809Z,77.69
2023-09-01T14:38:56.829Z,77.55
2023-09-01T14:41:24.513Z,77.20
2023-09-01T14:43:51.039Z,77.01
2023-09-01T14:46:18.960Z,76.74
2023-09-01T14:48:47.338Z,76.09
2023-09-01T14:51:18.222Z,75.17
2023-09-01T14:53:48.352Z,75.29
2023-09-01T14:56:15.970Z,74.60
2023-09-01T14:58:42.613Z,73.84
2023-09-01T15:01:09.156Z,73.97
2023-09-01T15:03:36.022Z,73.22
2023-09-01T15:06:02.877Z,72.65
2023-09-01T15:08:29.413Z,72.61
2023-09-01T15:10:56.458Z,73.36
2023-09-01T15:13:23.535Z,73.30
2023-09-01T15:15:50.412Z,73.50
2023-09-01T15:18:17.641Z,73.37
2023-09-01T15:20:44.534Z,73.39
2023-09-01T15:23:11.110Z,72.55
2023-09-01T15:25:39.157Z,72.50
2023-09-01T15:28:06.022Z,73.13
2023-09-01T15:30:32.939Z,72.92
2023-09-01T15:32:59.422Z,72.87
2023-09-01T15:35:30.162Z,72.52
2023-09-01T15:38:01.564Z,73.10
2023-09-01T15:40:28.350Z,73.31
2023-09-01T15:42:56.525Z,74.04
2023-09-01T15:45:24.079Z,73.87
2023-09-01T15:47:51.675Z,73.34
2023-09-01T15:50:24.981Z,73.56
2023-09-01T15:52:54.749Z,74.15
2023-09-01T15:55:26.777Z,74.06
2023-09-01T15:57:53.836Z,74.93
2023-09-01T16:00:20.453Z,75.38
2023-09-01T16:02:47.062Z,75.46
2023-09-01T16:05:14.281Z,75.86
2023-09-01T16:07:40.920Z,75.95
2023-09-01T16:10:07.872Z,75.98
2023-09-01T16:12:34.364Z,76.21
2023-09-01T16:15:00.826Z,76.46
2023-09-01T16:17:27.459Z,76.39
2023-09-01T16:19:53.973Z,77.04
2023-09-01T16:22:20.639Z,77.29
2023-09-01T16:24:47.101Z,77.63
2023-09-01T16:27:13.824Z,77.65
2023-09-01T16:29:44.833Z,77.84
2023-09-01T16:32:11.435Z,77.71
2023-09-01T16:34:37.977Z,77.63
2023-09-01T16:37:04.647Z,77.90
2023-09-01T16:39:32.007Z,78.01
2023-09-01T16:41:59.676Z,78.05
2023-09-01T16:44:27.051Z,78.41
2023-09-01T16:46:53.755Z,78.79
2023-09-01T16:49:20.489Z,78.73
2023-09-01T16:51:46.991Z,78.69
2023-09-01T16:54:13.464Z,79.19
2023-09-01T16:56:39.923Z,79.84
2023-09-01T16:59:06.597Z,81.25
2023-09-01T17:01:33.073Z,81.43
2023-09-01T17:03:59.623Z,81.97
2023-09-01T17:06:26.198Z,82.28
2023-09-01T17:08:56.934Z,82.77
2023-09-01T17:11:23.677Z,83.66
2023-09-01T17:13:50.413Z,84.27
2023-09-01T17:16:18.584Z,85.10
2023-09-01T17:18:46.736Z,85.43
2023-09-01T17:21:13.416Z,85.64
2023-09-01T17:23:40.165Z,86.84
2023-09-01T17:26:06.800Z,86.95
2023-09-01T17:28:33.491Z,87.22
2023-09-01T17:31:00.055Z,86.84
2023-09-01T17:33:26.752Z,87.20
2023-09-01T17:35:53.343Z,87.81
2023-09-01T17:38:19.857Z,88.12
2023-09-01T17:40:46.571Z,88.61
2023-09-01T17:43:13.156Z,88.56
2023-09-01T17:45:39.802Z,88.47
2023-09-01T17:48:07.208Z,89.22
2023-09-01T17:50:33.942Z,90.11
2023-09-01T17:53:00.693Z,90.62
2023-09-01T17:55:27.280Z,90.89
2023-09-01T17:57:53.952Z,91.24
2023-09-01T18:00:20.621Z,92.19
2023-09-01T18:02:47.270Z,92.85
2023-09-01T18:05:13.869Z,93.34
2023-09-01T18:07:40.349Z,93.73
2023-09-01T18:10:07.517Z,94.36
2023-09-01T18:12:34.104Z,95.46
2023-09-01T18:15:00.664Z,95.49
2023-09-01T18:17:27.241Z,96.23
2023-09-01T18:19:55.891Z,97.22
2023-09-01T18:22:22.368Z,97.78
2023-09-01T18:24:50.951Z,98.00
2023-09-01T18:27:30.430Z,98.64
2023-09-01T18:29:57.811Z,98.83
2023-09-01T18:32:28.513Z,98.66
2023-09-01T18:34:55.490Z,98.68
2023-09-01T18:37:22.171Z,99.00
2023-09-01T18:39:50.266Z,98.94
2023-09-01T18:42:40.073Z,99.45
2023-09-01T18:45:11.868Z,99.20
2023-09-01T18:47:38.884Z,99.60
2023-09-01T18:50:06.070Z,99.45
2023-09-01T18:52:34.487Z,99.65
2023-09-01T18:55:01.065Z,100.00
2023-09-01T18:57:27.573Z,100.00
2023-09-01T19:00:04.230Z,100.00
2023-09-01T19:02:42.486Z,100.00
2023-09-01T19:05:21.258Z,100.00
2023-09-01T19:07:47.728Z,100.00
2023-09-01T19:10:21.630Z,100.00
2023-09-01T19:12:52.519Z,100.00
2023-09-01T19:15:20.828Z,100.00
2023-09-01T19:17:48.844Z,100.00
2023-09-01T19:20:33.900Z,100.00
2023-09-01T19:23:21.291Z,100.00
2023-09-01T19:25:47.982Z,100.00
2023-09-01T19:28:35.346Z,100.00
2023-09-01T19:31:07.019Z,100.00
2023-09-01T19:33:35.965Z,100.00
2023-09-01T19:36:02.634Z,100.00
2023-09-01T19:38:30.653Z,100.00
2023-09-01T19:40:59.583Z,100.00
2023-09-01T19:43:26.334Z,100.00
2023-09-01T19:45:54.381Z,100.00
2023-09-01T19:48:22.356Z,100.00
2023-09-01T19:50:49.060Z,100.00
2023-09-01T19:53:29.719Z,100.00
2023-09-01T19:56:15.948Z,100.00
2023-09-01T19:58:47.566Z,100.00
2023-09-01T20:01:17.596Z,100.00
2023-09-01T20:03:44.564Z,100.00
2023-09-01T20:06:13.204Z,100.00
2023-09-01T20:08:39.762Z,100.00
2023-09-01T20:11:08.137Z,100.00
2023-09-01T20:13:37.180Z,100.00
2023-09-01T20:16:04.224Z,100.00
2023-09-01T20:18:31.089Z,100.00
2023-09-01T20:20:57.699Z,100.00
2023-09-01T20:23:24.228Z,100.00
2023-09-01T20:25:53.141Z,100.00
2023-09-01T20:28:19.639Z,100.00
2023-09-01T20:30:46.133Z,100.00
2023-09-01T20:33:12.869Z,100.00
2023-09-01T20:35:39.298Z,100.00
2023-09-01T20:38:05.862Z,100.00
2023-09-01T20:40:32.419Z,100.00
2023-09-01T20:42:58.943Z,100.00
2023-09-01T20:45:25.480Z,100.00
2023-09-01T20:47:52.017Z,100.00
2023-09-01T20:50:18.586Z,100.00
2023-09-01T20:52:45.098Z,100.00
2023-09-01T20:55:11.616Z,100.00
2023-09-01T20:57:43.031Z,100.00
2023-09-01T21:00:13.803Z,100.00
2023-09-01T21:02:42.568Z,100.00
2023-09-01T21:05:09.284Z,100.00
2023-09-01T21:07:37.406Z,100.00
2023-09-01T21:10:05.609Z,100.00
2023-09-01T21:12:32.459Z,100.00
2023-09-01T21:14:59.365Z,100.00
2023-09-01T21:17:27.369Z,100.00
2023-09-01T21:19:58.686Z,100.00
2023-09-01T21:22:26.758Z,100.00
2023-09-01T21:24:53.853Z,100.00
2023-09-01T21:27:20.416Z,100.00
2023-09-01T21:29:51.663Z,100.00
2023-09-01T21:32:21.694Z,100.00
2023-09-01T21:34:49.035Z,100.00
2023-09-01T21:37:15.554Z,100.00
2023-09-01T21:39:42.152Z,100.00
2023-09-01T21:42:08.620Z,100.00
2023-09-01T21:44:35.044Z,100.00
2023-09-01T21:47:01.505Z,100.00
2023-09-01T21:49:27.927Z,100.00
2023-09-01T21:51:54.328Z,100.00
2023-09-01T21:54:20.810Z,100.00
2023-09-01T21:56:47.285Z,100.00
2023-09-01T21:59:13.940Z,100.00
2023-09-01T22:01:40.726Z,100.00
2023-09-01T22:04:07.885Z,100.00
2023-09-01T22:06:34.380Z,100.00
2023-09-01T22:09:00.884Z,100.00
2023-09-01T22:11:27.397Z,100.00
2023-09-01T22:13:54.624Z,100.00
2023-09-01T22:16:22.609Z,100.00
2023-09-01T22:18:49.046Z,100.00
2023-09-01T22:21:16.183Z,100.00
2023-09-01T22:23:42.618Z,100.00
2023-09-01T22:26:09.700Z,100.00
2023-09-01T22:28:36.248Z,100.00
2023-09-01T22:31:02.806Z,100.00
2023-09-01T22:33:29.326Z,100.00
2023-09-01T22:35:55.845Z,100.00
2023-09-01T22:38:22.373Z,100.00
2023-09-01T22:40:49.525Z,100.00
2023-09-01T22:43:19.752Z,100.00
2023-09-01T22:45:46.752Z,100.00
2023-09-01T22:48:13.268Z,100.00
2023-09-01T22:50:39.767Z,100.00
2023-09-01T22:53:06.265Z,100.00
2023-09-01T22:55:33.600Z,100.00
2023-09-01T22:58:00.267Z,100.00
2023-09-01T23:00:27.325Z,100.00
2023-09-01T23:02:53.979Z,100.00
2023-09-01T23:05:20.498Z,100.00
2023-09-01T23:07:47.092Z,100.00
2023-09-01T23:10:13.543Z,100.00
2023-09-01T23:12:40.044Z,100.00
2023-09-01T23:15:07.120Z,100.00
2023-09-01T23:17:33.761Z,100.00
2023-09-01T23:20:00.238Z,100.00
2023-09-01T23:22:27.579Z,100.00
2023-09-01T23:24:54.201Z,100.00
2023-09-01T23:27:20.765Z,100.00
2023-09-01T23:29:47.228Z,100.00
2023-09-01T23:32:13.764Z,100.00
2023-09-01T23:34:40.846Z,100.00
2023-09-01T23:37:07.534Z,100.00
2023-09-01T23:39:34.412Z,100.00
2023-09-01T23:42:00.988Z,100.00
2023-09-01T23:44:27.620Z,100.00
2023-09-01T23:46:54.108Z,100.00
2023-09-01T23:49:20.560Z,100.00
2023-09-01T23:51:47.105Z,100.00
2023-09-01T23:54:16.630Z,100.00
2023-09-01T23:56:43.987Z,100.00
2023-09-01T23:59:11.293Z,100.00
